createdAt,value
2018-04-14T00:00:03.339Z,1007.74
2018-04-14T00:00:41.984Z,1007.72
2018-04-14T00:01:17.399Z,1007.70
2018-04-14T00:01:52.717Z,1007.72
2018-04-14T00:02:28.117Z,1007.74
2018-04-14T00:03:03.481Z,1007.72
2018-04-14T00:03:41.608Z,1007.71
2018-04-14T00:04:17.240Z,1007.72
2018-04-14T00:04:54.113Z,1007.71
2018-04-14T00:05:29.537Z,1007.71
2018-04-14T00:06:05.037Z,1007.70
2018-04-14T00:06:40.573Z,1007.71
2018-04-14T00:07:16.208Z,1007.70
2018-04-14T00:07:51.531Z,1007.68
2018-04-14T00:08:26.726Z,1007.67
2018-04-14T00:09:02.331Z,1007.66
2018-04-14T00:09:38.141Z,1007.65
2018-04-14T00:10:13.746Z,1007.67
2018-04-14T00:10:50.659Z,1007.68
2018-04-14T00:11:26.203Z,1007.66
2018-04-14T00:12:02.067Z,1007.69
2018-04-14T00:12:37.479Z,1007.67
2018-04-14T00:13:12.904Z,1007.66
2018-04-14T00:13:48.281Z,1007.68
2018-04-14T00:14:23.648Z,1007.70
2018-04-14T00:14:59.092Z,1007.72
2018-04-14T00:15:34.525Z,1007.74
2018-04-14T00:16:09.953Z,1007.71
2018-04-14T00:16:45.178Z,1007.74
2018-04-14T00:17:20.403Z,1007.72
2018-04-14T00:17:55.815Z,1007.73
2018-04-14T00:18:31.132Z,1007.76
2018-04-14T00:19:06.493Z,1007.75
2018-04-14T00:19:41.851Z,1007.78
2018-04-14T00:20:17.110Z,1007.81
2018-04-14T00:20:52.818Z,1007.81
2018-04-14T00:21:27.966Z,1007.87
2018-04-14T00:22:03.445Z,1007.84
2018-04-14T00:22:39.378Z,1007.84
2018-04-14T00:23:15.139Z,1007.84
2018-04-14T00:23:50.599Z,1007.85
2018-04-14T00:24:26.129Z,1007.83
2018-04-14T00:25:01.815Z,1007.82
2018-04-14T00:25:37.529Z,1007.81
2018-04-14T00:26:12.768Z,1007.81
2018-04-14T00:26:48.100Z,1007.81
2018-04-14T00:27:23.379Z,1007.82
2018-04-14T00:27:58.872Z,1007.82
2018-04-14T00:28:34.324Z,1007.80
2018-04-14T00:29:10.286Z,1007.86
2018-04-14T00:29:46.219Z,1007.83
2018-04-14T00:30:21.667Z,1007.82
2018-04-14T00:30:57.107Z,1007.83
2018-04-14T00:31:32.887Z,1007.80
2018-04-14T00:32:08.365Z,1007.82
2018-04-14T00:32:43.789Z,1007.76
2018-04-14T00:33:19.881Z,1007.79
2018-04-14T00:33:55.194Z,1007.80
2018-04-14T00:34:30.770Z,1007.80
2018-04-14T00:35:06.386Z,1007.81
2018-04-14T00:35:42.190Z,1007.78
2018-04-14T00:36:17.633Z,1007.80
2018-04-14T00:36:52.959Z,1007.77
2018-04-14T00:37:28.510Z,1007.79
2018-04-14T00:38:04.295Z,1007.79
2018-04-14T00:38:39.613Z,1007.78
2018-04-14T00:39:15.122Z,1007.79
2018-04-14T00:39:50.577Z,1007.82
2018-04-14T00:40:26.228Z,1007.78
2018-04-14T00:41:01.761Z,1007.80
2018-04-14T00:41:37.022Z,1007.80
2018-04-14T00:42:12.688Z,1007.82
2018-04-14T00:42:48.386Z,1007.81
2018-04-14T00:43:23.549Z,1007.81
2018-04-14T00:43:58.958Z,1007.79
2018-04-14T00:44:34.163Z,1007.82
2018-04-14T00:45:10.622Z,1007.79
2018-04-14T00:45:47.436Z,1007.82
2018-04-14T00:46:22.852Z,1007.82
2018-04-14T00:46:58.148Z,1007.82
2018-04-14T00:47:33.849Z,1007.85
2018-04-14T00:48:09.056Z,1007.80
2018-04-14T00:48:44.619Z,1007.86
2018-04-14T00:49:20.263Z,1007.84
2018-04-14T00:49:55.773Z,1007.83
2018-04-14T00:50:32.558Z,1007.86
2018-04-14T00:51:07.947Z,1007.86
2018-04-14T00:51:43.591Z,1007.90
2018-04-14T00:52:19.097Z,1007.90
2018-04-14T00:52:54.409Z,1007.92
2018-04-14T00:53:29.862Z,1007.91
2018-04-14T00:54:05.501Z,1007.90
2018-04-14T00:54:42.229Z,1007.90
2018-04-14T00:55:17.846Z,1007.91
2018-04-14T00:55:54.075Z,1007.90
2018-04-14T00:56:29.699Z,1007.91
2018-04-14T00:57:05.471Z,1007.91
2018-04-14T00:57:41.858Z,1007.95
2018-04-14T00:58:17.641Z,1007.96
2018-04-14T00:58:53.073Z,1007.95
2018-04-14T00:59:28.528Z,1007.96
2018-04-14T01:00:04.023Z,1007.91
2018-04-14T01:00:43.333Z,1007.95
2018-04-14T01:01:18.653Z,1007.96
2018-04-14T01:01:54.048Z,1008.01
2018-04-14T01:02:29.625Z,1007.93
2018-04-14T01:03:05.919Z,1007.99
2018-04-14T01:03:42.540Z,1007.96
2018-04-14T01:04:17.818Z,1007.95
2018-04-14T01:04:53.403Z,1007.93
2018-04-14T01:05:28.872Z,1007.95
2018-04-14T01:06:04.137Z,1007.96
2018-04-14T01:06:39.547Z,1007.93
2018-04-14T01:07:14.663Z,1007.99
2018-04-14T01:07:50.402Z,1007.98
2018-04-14T01:08:26.001Z,1007.97
2018-04-14T01:09:01.442Z,1007.97
2018-04-14T01:09:37.751Z,1007.96
2018-04-14T01:10:13.176Z,1007.98
2018-04-14T01:10:49.089Z,1007.98
2018-04-14T01:11:24.416Z,1007.99
2018-04-14T01:12:00.037Z,1008.01
2018-04-14T01:12:35.491Z,1007.99
2018-04-14T01:13:11.172Z,1007.97
2018-04-14T01:13:46.584Z,1007.98
2018-04-14T01:14:22.126Z,1007.98
2018-04-14T01:14:57.391Z,1007.99
2018-04-14T01:15:32.516Z,1007.99
2018-04-14T01:16:07.873Z,1007.98
2018-04-14T01:16:43.172Z,1008.01
2018-04-14T01:17:18.734Z,1008.00
2018-04-14T01:17:54.435Z,1008.01
2018-04-14T01:18:29.873Z,1008.05
2018-04-14T01:19:05.484Z,1008.02
2018-04-14T01:19:40.836Z,1008.01
2018-04-14T01:20:16.143Z,1008.02
2018-04-14T01:20:51.649Z,1008.06
2018-04-14T01:21:28.232Z,1008.06
2018-04-14T01:22:03.702Z,1008.06
2018-04-14T01:22:39.182Z,1008.08
2018-04-14T01:23:14.646Z,1008.04
2018-04-14T01:23:49.993Z,1008.06
2018-04-14T01:24:25.252Z,1008.07
2018-04-14T01:25:00.733Z,1008.07
2018-04-14T01:25:36.202Z,1008.04
2018-04-14T01:26:12.243Z,1008.00
2018-04-14T01:26:48.139Z,1008.06
2018-04-14T01:27:23.655Z,1008.05
2018-04-14T01:27:59.154Z,1008.09
2018-04-14T01:28:34.912Z,1008.08
2018-04-14T01:29:10.568Z,1008.09
2018-04-14T01:29:46.180Z,1008.07
2018-04-14T01:30:21.442Z,1008.07
2018-04-14T01:30:56.933Z,1008.10
2018-04-14T01:31:32.421Z,1008.08
2018-04-14T01:32:08.013Z,1008.09
2018-04-14T01:32:44.770Z,1008.11
2018-04-14T01:33:20.066Z,1008.08
2018-04-14T01:33:55.606Z,1008.08
2018-04-14T01:34:30.933Z,1008.06
2018-04-14T01:35:06.341Z,1008.07
2018-04-14T01:35:43.172Z,1008.10
2018-04-14T01:36:25.431Z,1008.07
2018-04-14T01:37:01.022Z,1008.05
2018-04-14T01:37:36.980Z,1008.07
2018-04-14T01:38:12.292Z,1008.05
2018-04-14T01:38:47.721Z,1008.05
2018-04-14T01:39:22.988Z,1008.02
2018-04-14T01:39:58.279Z,1008.08
2018-04-14T01:40:33.548Z,1008.05
2018-04-14T01:41:09.006Z,1008.10
2018-04-14T01:41:45.286Z,1008.04
2018-04-14T01:42:20.784Z,1008.03
2018-04-14T01:42:56.044Z,1008.02
2018-04-14T01:43:31.498Z,1008.05
2018-04-14T01:44:06.895Z,1008.04
2018-04-14T01:44:42.776Z,1008.08
2018-04-14T01:45:20.784Z,1008.09
2018-04-14T01:45:56.349Z,1008.08
2018-04-14T01:46:31.879Z,1008.09
2018-04-14T01:47:07.171Z,1008.06
2018-04-14T01:47:43.402Z,1008.08
2018-04-14T01:48:19.015Z,1008.12
2018-04-14T01:48:54.537Z,1008.10
2018-04-14T01:49:30.252Z,1008.10
2018-04-14T01:50:05.579Z,1008.08
2018-04-14T01:50:43.694Z,1008.11
2018-04-14T01:51:19.160Z,1008.09
2018-04-14T01:51:54.679Z,1008.10
2018-04-14T01:52:30.131Z,1008.09
2018-04-14T01:53:05.589Z,1008.12
2018-04-14T01:53:41.122Z,1008.15
2018-04-14T01:54:16.593Z,1008.13
2018-04-14T01:54:52.330Z,1008.18
2018-04-14T01:55:28.273Z,1008.14
2018-04-14T01:56:04.121Z,1008.18
2018-04-14T01:56:39.963Z,1008.20
2018-04-14T01:57:15.421Z,1008.16
2018-04-14T01:57:50.820Z,1008.13
2018-04-14T01:58:26.237Z,1008.18
2018-04-14T01:59:02.024Z,1008.15
2018-04-14T01:59:37.855Z,1008.17
2018-04-14T02:00:13.592Z,1008.16
2018-04-14T02:00:51.303Z,1008.16
2018-04-14T02:01:26.691Z,1008.19
2018-04-14T02:02:02.721Z,1008.19
2018-04-14T02:02:38.476Z,1008.18
2018-04-14T02:03:13.763Z,1008.18
2018-04-14T02:03:49.455Z,1008.23
2018-04-14T02:04:24.800Z,1008.21
2018-04-14T02:05:00.204Z,1008.20
2018-04-14T02:05:36.541Z,1008.21
2018-04-14T02:06:12.383Z,1008.17
2018-04-14T02:06:47.820Z,1008.18
2018-04-14T02:07:23.558Z,1008.18
2018-04-14T02:07:59.001Z,1008.20
2018-04-14T02:08:34.678Z,1008.19
2018-04-14T02:09:09.787Z,1008.19
2018-04-14T02:09:45.285Z,1008.18
2018-04-14T02:10:20.544Z,1008.18
2018-04-14T02:10:56.021Z,1008.14
2018-04-14T02:11:31.470Z,1008.11
2018-04-14T02:12:06.746Z,1008.17
2018-04-14T02:12:42.464Z,1008.10
2018-04-14T02:13:18.052Z,1008.08
2018-04-14T02:13:53.661Z,1008.09
2018-04-14T02:14:29.032Z,1008.06
2018-04-14T02:15:04.440Z,1008.09
2018-04-14T02:15:40.101Z,1008.07
2018-04-14T02:16:17.851Z,1008.03
2018-04-14T02:16:53.476Z,1008.01
2018-04-14T02:17:28.849Z,1008.06
2018-04-14T02:18:04.357Z,1008.01
2018-04-14T02:18:40.225Z,1008.07
2018-04-14T02:19:15.772Z,1007.99
2018-04-14T02:19:51.476Z,1008.05
2018-04-14T02:20:26.925Z,1008.02
2018-04-14T02:21:02.338Z,1008.05
2018-04-14T02:21:37.821Z,1008.01
2018-04-14T02:22:13.088Z,1008.03
2018-04-14T02:22:48.644Z,1008.02
2018-04-14T02:23:23.902Z,1008.04
2018-04-14T02:23:59.178Z,1008.04
2018-04-14T02:24:34.543Z,1008.08
2018-04-14T02:25:09.872Z,1008.06
2018-04-14T02:25:46.306Z,1008.08
2018-04-14T02:26:22.286Z,1008.08
2018-04-14T02:26:57.970Z,1008.13
2018-04-14T02:27:33.655Z,1008.05
2018-04-14T02:28:08.925Z,1008.06
2018-04-14T02:28:44.179Z,1008.08
2018-04-14T02:29:19.395Z,1008.09
2018-04-14T02:29:55.093Z,1008.10
2018-04-14T02:30:30.698Z,1008.06
2018-04-14T02:31:06.186Z,1008.09
2018-04-14T02:31:41.933Z,1008.10
2018-04-14T02:32:17.190Z,1008.10
2018-04-14T02:32:52.551Z,1008.06
2018-04-14T02:33:28.048Z,1008.11
2018-04-14T02:34:03.676Z,1008.09
2018-04-14T02:34:39.130Z,1008.09
2018-04-14T02:35:15.139Z,1008.09
2018-04-14T02:35:50.448Z,1008.12
2018-04-14T02:36:25.983Z,1008.11
2018-04-14T02:37:01.415Z,1008.11
2018-04-14T02:37:37.068Z,1008.12
2018-04-14T02:38:12.791Z,1008.12
2018-04-14T02:38:48.636Z,1008.12
2018-04-14T02:39:24.306Z,1008.10
2018-04-14T02:39:59.758Z,1008.05
2018-04-14T02:40:35.266Z,1008.08
2018-04-14T02:41:11.009Z,1008.04
2018-04-14T02:41:46.316Z,1008.09
2018-04-14T02:42:21.650Z,1008.10
2018-04-14T02:42:57.475Z,1008.06
2018-04-14T02:43:33.325Z,1008.01
2018-04-14T02:44:08.846Z,1008.04
2018-04-14T02:44:44.224Z,1008.06
2018-04-14T02:45:20.232Z,1008.03
2018-04-14T02:45:55.691Z,1008.05
2018-04-14T02:46:31.136Z,1008.02
2018-04-14T02:47:06.529Z,1008.06
2018-04-14T02:47:42.974Z,1008.06
2018-04-14T02:48:18.284Z,1008.07
2018-04-14T02:48:53.933Z,1008.07
2018-04-14T02:49:29.317Z,1008.06
2018-04-14T02:50:04.614Z,1008.02
2018-04-14T02:50:40.833Z,1008.05
2018-04-14T02:51:16.312Z,1008.06
2018-04-14T02:51:52.038Z,1008.08
2018-04-14T02:52:27.405Z,1008.08
2018-04-14T02:53:03.106Z,1008.08
2018-04-14T02:53:38.648Z,1008.09
2018-04-14T02:54:13.989Z,1008.10
2018-04-14T02:54:49.716Z,1008.09
2018-04-14T02:55:25.867Z,1008.08
2018-04-14T02:56:01.365Z,1008.13
2018-04-14T02:56:36.676Z,1008.09
2018-04-14T02:57:12.055Z,1008.09
2018-04-14T02:57:47.514Z,1008.09
2018-04-14T02:58:23.152Z,1008.15
2018-04-14T02:58:58.545Z,1008.13
2018-04-14T02:59:33.904Z,1008.10
2018-04-14T03:00:09.372Z,1008.15
2018-04-14T03:00:44.629Z,1008.11
2018-04-14T03:01:21.674Z,1008.13
2018-04-14T03:01:57.094Z,1008.17
2018-04-14T03:02:32.461Z,1008.12
2018-04-14T03:03:08.072Z,1008.15
2018-04-14T03:03:43.378Z,1008.14
2018-04-14T03:04:18.741Z,1008.16
2018-04-14T03:04:54.099Z,1008.20
2018-04-14T03:05:29.770Z,1008.18
2018-04-14T03:06:05.407Z,1008.15
2018-04-14T03:06:40.891Z,1008.12
2018-04-14T03:07:16.474Z,1008.13
2018-04-14T03:07:52.377Z,1008.10
2018-04-14T03:08:27.755Z,1008.09
2018-04-14T03:09:03.145Z,1008.11
2018-04-14T03:09:39.010Z,1008.10
2018-04-14T03:10:14.400Z,1008.04
2018-04-14T03:10:50.094Z,1008.13
2018-04-14T03:11:25.576Z,1008.09
2018-04-14T03:12:01.170Z,1008.12
2018-04-14T03:12:36.869Z,1008.08
2018-04-14T03:13:12.241Z,1008.13
2018-04-14T03:13:47.988Z,1008.14
2018-04-14T03:14:23.280Z,1008.15
2018-04-14T03:14:58.846Z,1008.16
2018-04-14T03:15:34.246Z,1008.19
2018-04-14T03:16:09.742Z,1008.13
2018-04-14T03:16:45.074Z,1008.12
2018-04-14T03:17:20.946Z,1008.11
2018-04-14T03:17:56.488Z,1008.14
2018-04-14T03:18:31.849Z,1008.14
2018-04-14T03:19:07.279Z,1008.14
2018-04-14T03:19:44.741Z,1008.13
2018-04-14T03:20:20.442Z,1008.19
2018-04-14T03:20:56.315Z,1008.19
2018-04-14T03:21:31.831Z,1008.21
2018-04-14T03:22:07.424Z,1008.24
2018-04-14T03:22:43.076Z,1008.24
2018-04-14T03:23:18.381Z,1008.24
2018-04-14T03:23:53.834Z,1008.24
2018-04-14T03:24:29.501Z,1008.23
2018-04-14T03:25:06.111Z,1008.22
2018-04-14T03:25:46.529Z,1008.24
2018-04-14T03:26:22.024Z,1008.20
2018-04-14T03:26:57.742Z,1008.24
2018-04-14T03:27:33.211Z,1008.26
2018-04-14T03:28:08.713Z,1008.24
2018-04-14T03:28:44.504Z,1008.23
2018-04-14T03:29:19.899Z,1008.22
2018-04-14T03:29:55.250Z,1008.26
2018-04-14T03:30:30.685Z,1008.27
2018-04-14T03:31:06.131Z,1008.27
2018-04-14T03:31:41.595Z,1008.26
2018-04-14T03:32:17.163Z,1008.29
2018-04-14T03:32:52.809Z,1008.28
2018-04-14T03:33:28.284Z,1008.24
2018-04-14T03:34:03.646Z,1008.29
2018-04-14T03:34:39.176Z,1008.23
2018-04-14T03:35:14.708Z,1008.26
2018-04-14T03:35:50.032Z,1008.24
2018-04-14T03:36:25.633Z,1008.27
2018-04-14T03:37:01.006Z,1008.28
2018-04-14T03:37:36.610Z,1008.26
2018-04-14T03:38:12.175Z,1008.28
2018-04-14T03:38:47.471Z,1008.26
2018-04-14T03:39:23.009Z,1008.28
2018-04-14T03:39:58.704Z,1008.30
2018-04-14T03:40:34.440Z,1008.26
2018-04-14T03:41:10.042Z,1008.28
2018-04-14T03:41:45.402Z,1008.29
2018-04-14T03:42:20.820Z,1008.27
2018-04-14T03:42:56.151Z,1008.30
2018-04-14T03:43:31.420Z,1008.30
2018-04-14T03:44:06.752Z,1008.30
2018-04-14T03:44:42.410Z,1008.31
2018-04-14T03:45:17.835Z,1008.28
2018-04-14T03:45:53.111Z,1008.29
2018-04-14T03:46:28.543Z,1008.33
2018-04-14T03:47:04.096Z,1008.29
2018-04-14T03:47:39.629Z,1008.30
2018-04-14T03:48:15.160Z,1008.29
2018-04-14T03:48:50.926Z,1008.34
2018-04-14T03:49:26.400Z,1008.28
2018-04-14T03:50:01.681Z,1008.28
2018-04-14T03:50:37.537Z,1008.30
2018-04-14T03:51:13.012Z,1008.31
2018-04-14T03:51:48.391Z,1008.33
2018-04-14T03:52:24.152Z,1008.36
2018-04-14T03:52:59.431Z,1008.34
2018-04-14T03:53:34.693Z,1008.36
2018-04-14T03:54:10.249Z,1008.34
2018-04-14T03:54:45.873Z,1008.35
2018-04-14T03:55:21.276Z,1008.36
2018-04-14T03:55:56.633Z,1008.36
2018-04-14T03:56:32.086Z,1008.37
2018-04-14T03:57:07.707Z,1008.40
2018-04-14T03:57:43.802Z,1008.40
2018-04-14T03:58:20.470Z,1008.44
2018-04-14T03:58:55.917Z,1008.48
2018-04-14T03:59:31.217Z,1008.46
2018-04-14T04:00:06.789Z,1008.53
2018-04-14T04:00:44.005Z,1008.51
2018-04-14T04:01:19.562Z,1008.52
2018-04-14T04:01:55.113Z,1008.51
2018-04-14T04:02:30.591Z,1008.57
2018-04-14T04:03:06.127Z,1008.56
2018-04-14T04:03:41.576Z,1008.55
2018-04-14T04:04:16.909Z,1008.57
2018-04-14T04:04:54.992Z,1008.58
2018-04-14T04:05:31.258Z,1008.57
2018-04-14T04:06:09.543Z,1008.60
2018-04-14T04:06:44.871Z,1008.57
2018-04-14T04:07:26.606Z,1008.60
2018-04-14T04:08:05.091Z,1008.62
2018-04-14T04:08:40.530Z,1008.61
2018-04-14T04:09:15.853Z,1008.61
2018-04-14T04:09:51.217Z,1008.65
2018-04-14T04:10:26.557Z,1008.64
2018-04-14T04:11:02.104Z,1008.65
2018-04-14T04:11:40.667Z,1008.65
2018-04-14T04:12:16.316Z,1008.65
2018-04-14T04:12:51.682Z,1008.68
2018-04-14T04:13:27.321Z,1008.70
2018-04-14T04:14:02.885Z,1008.68
2018-04-14T04:14:39.950Z,1008.68
2018-04-14T04:15:15.193Z,1008.70
2018-04-14T04:15:53.978Z,1008.71
2018-04-14T04:16:29.523Z,1008.69
2018-04-14T04:17:05.136Z,1008.74
2018-04-14T04:17:46.838Z,1008.74
2018-04-14T04:18:22.317Z,1008.79
2018-04-14T04:18:57.747Z,1008.78
2018-04-14T04:19:33.069Z,1008.76
2018-04-14T04:20:08.586Z,1008.72
2018-04-14T04:20:48.188Z,1008.72
2018-04-14T04:21:23.523Z,1008.69
2018-04-14T04:21:59.080Z,1008.75
2018-04-14T04:22:38.383Z,1008.76
2018-04-14T04:23:13.953Z,1008.77
2018-04-14T04:23:49.357Z,1008.78
2018-04-14T04:24:24.718Z,1008.79
2018-04-14T04:25:00.496Z,1008.84
2018-04-14T04:25:36.762Z,1008.84
2018-04-14T04:26:13.280Z,1008.89
2018-04-14T04:26:52.161Z,1008.84
2018-04-14T04:27:28.291Z,1008.80
2018-04-14T04:28:03.934Z,1008.87
2018-04-14T04:28:42.575Z,1008.85
2018-04-14T04:29:17.951Z,1008.85
2018-04-14T04:29:53.256Z,1008.89
2018-04-14T04:30:29.064Z,1008.90
2018-04-14T04:31:04.278Z,1008.89
2018-04-14T04:31:39.687Z,1008.88
2018-04-14T04:32:15.462Z,1008.89
2018-04-14T04:32:50.934Z,1008.91
2018-04-14T04:33:26.254Z,1008.94
2018-04-14T04:34:01.625Z,1008.94
2018-04-14T04:34:39.433Z,1008.92
2018-04-14T04:35:15.019Z,1008.93
2018-04-14T04:35:50.250Z,1008.96
2018-04-14T04:36:25.713Z,1008.96
2018-04-14T04:37:01.148Z,1008.95
2018-04-14T04:37:36.740Z,1009.01
2018-04-14T04:38:12.099Z,1009.01
2018-04-14T04:38:47.684Z,1009.01
2018-04-14T04:39:22.915Z,1009.05
2018-04-14T04:39:58.691Z,1009.11
2018-04-14T04:40:34.358Z,1009.05
2018-04-14T04:41:09.728Z,1009.04
2018-04-14T04:41:46.356Z,1009.08
2018-04-14T04:42:21.847Z,1009.12
2018-04-14T04:42:57.290Z,1009.15
2018-04-14T04:43:32.881Z,1009.13
2018-04-14T04:44:08.496Z,1009.15
2018-04-14T04:44:44.632Z,1009.16
2018-04-14T04:45:20.256Z,1009.14
2018-04-14T04:45:55.792Z,1009.14
2018-04-14T04:46:31.324Z,1009.17
2018-04-14T04:47:06.808Z,1009.16
2018-04-14T04:47:42.639Z,1009.21
2018-04-14T04:48:18.109Z,1009.17
2018-04-14T04:48:53.995Z,1009.20
2018-04-14T04:49:29.718Z,1009.23
2018-04-14T04:50:05.359Z,1009.18
2018-04-14T04:50:40.936Z,1009.17
2018-04-14T04:51:16.666Z,1009.19
2018-04-14T04:51:52.065Z,1009.16
2018-04-14T04:52:27.498Z,1009.16
2018-04-14T04:53:02.816Z,1009.18
2018-04-14T04:53:38.096Z,1009.18
2018-04-14T04:54:13.338Z,1009.22
2018-04-14T04:54:48.983Z,1009.22
2018-04-14T04:55:24.511Z,1009.25
2018-04-14T04:56:00.212Z,1009.23
2018-04-14T04:56:35.781Z,1009.30
2018-04-14T04:57:11.146Z,1009.28
2018-04-14T04:57:46.748Z,1009.29
2018-04-14T04:58:22.015Z,1009.27
2018-04-14T04:58:57.296Z,1009.28
2018-04-14T04:59:32.718Z,1009.25
2018-04-14T05:00:08.178Z,1009.27
2018-04-14T05:00:44.547Z,1009.29
2018-04-14T05:01:19.730Z,1009.30
2018-04-14T05:01:55.156Z,1009.32
2018-04-14T05:02:30.726Z,1009.34
2018-04-14T05:03:05.948Z,1009.36
2018-04-14T05:03:41.463Z,1009.35
2018-04-14T05:04:16.972Z,1009.40
2018-04-14T05:04:52.710Z,1009.39
2018-04-14T05:05:28.247Z,1009.40
2018-04-14T05:06:03.516Z,1009.38
2018-04-14T05:06:38.939Z,1009.39
2018-04-14T05:07:14.409Z,1009.35
2018-04-14T05:07:50.625Z,1009.41
2018-04-14T05:08:26.246Z,1009.44
2018-04-14T05:09:01.705Z,1009.48
2018-04-14T05:09:37.354Z,1009.48
2018-04-14T05:10:12.791Z,1009.56
2018-04-14T05:10:48.255Z,1009.53
2018-04-14T05:11:23.583Z,1009.52
2018-04-14T05:11:59.034Z,1009.49
2018-04-14T05:12:34.380Z,1009.53
2018-04-14T05:13:10.129Z,1009.55
2018-04-14T05:13:45.568Z,1009.51
2018-04-14T05:14:20.926Z,1009.54
2018-04-14T05:14:56.369Z,1009.52
2018-04-14T05:15:32.159Z,1009.51
2018-04-14T05:16:07.517Z,1009.56
2018-04-14T05:16:43.059Z,1009.56
2018-04-14T05:17:19.025Z,1009.58
2018-04-14T05:17:54.230Z,1009.60
2018-04-14T05:18:29.698Z,1009.61
2018-04-14T05:19:05.592Z,1009.57
2018-04-14T05:19:41.044Z,1009.58
2018-04-14T05:20:16.522Z,1009.58
2018-04-14T05:20:51.762Z,1009.64
2018-04-14T05:21:27.314Z,1009.61
2018-04-14T05:22:03.489Z,1009.61
2018-04-14T05:22:39.587Z,1009.65
2018-04-14T05:23:15.215Z,1009.64
2018-04-14T05:23:50.958Z,1009.69
2018-04-14T05:24:26.675Z,1009.68
2018-04-14T05:25:02.186Z,1009.73
2018-04-14T05:25:37.309Z,1009.74
2018-04-14T05:26:13.131Z,1009.76
2018-04-14T05:26:48.514Z,1009.77
2018-04-14T05:27:23.988Z,1009.75
2018-04-14T05:27:59.472Z,1009.80
2018-04-14T05:28:35.075Z,1009.73
2018-04-14T05:29:10.488Z,1009.79
2018-04-14T05:29:47.165Z,1009.80
2018-04-14T05:30:22.793Z,1009.79
2018-04-14T05:30:58.165Z,1009.76
2018-04-14T05:31:33.628Z,1009.84
2018-04-14T05:32:08.965Z,1009.81
2018-04-14T05:32:44.512Z,1009.82
2018-04-14T05:33:19.992Z,1009.80
2018-04-14T05:33:55.122Z,1009.78
2018-04-14T05:34:30.753Z,1009.78
2018-04-14T05:35:06.236Z,1009.81
2018-04-14T05:35:41.951Z,1009.82
2018-04-14T05:36:17.615Z,1009.81
2018-04-14T05:36:52.906Z,1009.81
2018-04-14T05:37:28.360Z,1009.83
2018-04-14T05:38:03.910Z,1009.84
2018-04-14T05:38:39.539Z,1009.83
2018-04-14T05:39:15.353Z,1009.83
2018-04-14T05:39:51.103Z,1009.81
2018-04-14T05:40:26.479Z,1009.82
2018-04-14T05:41:02.335Z,1009.85
2018-04-14T05:41:37.603Z,1009.81
2018-04-14T05:42:13.008Z,1009.86
2018-04-14T05:42:48.479Z,1009.85
2018-04-14T05:43:24.164Z,1009.87
2018-04-14T05:43:59.809Z,1009.85
2018-04-14T05:44:35.332Z,1009.87
2018-04-14T05:45:11.924Z,1009.88
2018-04-14T05:45:47.355Z,1009.84
2018-04-14T05:46:22.872Z,1009.84
2018-04-14T05:46:58.244Z,1009.91
2018-04-14T05:47:33.611Z,1009.90
2018-04-14T05:48:08.880Z,1009.90
2018-04-14T05:48:44.620Z,1009.88
2018-04-14T05:49:19.849Z,1009.85
2018-04-14T05:49:55.347Z,1009.84
2018-04-14T05:50:30.896Z,1009.85
2018-04-14T05:51:06.369Z,1009.85
2018-04-14T05:51:41.756Z,1009.86
2018-04-14T05:52:17.056Z,1009.84
2018-04-14T05:52:52.443Z,1009.85
2018-04-14T05:53:28.376Z,1009.88
2018-04-14T05:54:04.414Z,1009.92
2018-04-14T05:54:40.022Z,1009.92
2018-04-14T05:55:15.684Z,1009.95
2018-04-14T05:55:51.633Z,1009.94
2018-04-14T05:56:27.524Z,1009.95
2018-04-14T05:57:03.417Z,1009.97
2018-04-14T05:57:38.709Z,1009.96
2018-04-14T05:58:14.258Z,1009.99
2018-04-14T05:58:49.778Z,1009.99
2018-04-14T05:59:25.048Z,1010.00
2018-04-14T06:00:00.622Z,1010.00
2018-04-14T06:00:36.148Z,1010.03
2018-04-14T06:01:11.351Z,1009.98
2018-04-14T06:01:46.870Z,1010.02
2018-04-14T06:02:22.657Z,1010.05
2018-04-14T06:02:58.052Z,1010.06
2018-04-14T06:03:33.551Z,1010.06
2018-04-14T06:04:09.282Z,1010.02
2018-04-14T06:04:46.042Z,1009.98
2018-04-14T06:05:21.897Z,1010.00
2018-04-14T06:05:58.266Z,1009.98
2018-04-14T06:06:34.285Z,1009.97
2018-04-14T06:07:09.979Z,1009.98
2018-04-14T06:07:45.170Z,1009.99
2018-04-14T06:08:20.719Z,1009.96
2018-04-14T06:08:56.212Z,1010.01
2018-04-14T06:09:32.016Z,1010.05
2018-04-14T06:10:07.384Z,1010.03
2018-04-14T06:10:44.149Z,1010.04
2018-04-14T06:11:20.949Z,1010.05
2018-04-14T06:11:56.857Z,1009.97
2018-04-14T06:12:32.522Z,1010.00
2018-04-14T06:13:08.241Z,1009.98
2018-04-14T06:13:44.180Z,1010.02
2018-04-14T06:14:19.793Z,1010.01
2018-04-14T06:14:55.630Z,1009.98
2018-04-14T06:15:31.271Z,1010.02
2018-04-14T06:16:07.332Z,1010.04
2018-04-14T06:16:42.763Z,1010.05
2018-04-14T06:17:18.368Z,1010.06
2018-04-14T06:17:53.949Z,1010.09
2018-04-14T06:18:29.398Z,1010.08
2018-04-14T06:19:05.284Z,1010.14
2018-04-14T06:19:40.846Z,1010.17
2018-04-14T06:20:16.431Z,1010.15
2018-04-14T06:20:52.138Z,1010.18
2018-04-14T06:21:27.873Z,1010.17
2018-04-14T06:22:04.616Z,1010.18
2018-04-14T06:22:44.021Z,1010.18
2018-04-14T06:23:26.066Z,1010.20
2018-04-14T06:24:01.343Z,1010.20
2018-04-14T06:24:36.880Z,1010.21
2018-04-14T06:25:12.323Z,1010.20
2018-04-14T06:25:51.867Z,1010.26
2018-04-14T06:26:27.432Z,1010.29
2018-04-14T06:27:02.836Z,1010.25
2018-04-14T06:27:38.113Z,1010.27
2018-04-14T06:28:13.632Z,1010.28
2018-04-14T06:28:48.930Z,1010.30
2018-04-14T06:29:24.508Z,1010.27
2018-04-14T06:30:00.481Z,1010.30
2018-04-14T06:30:39.664Z,1010.34
2018-04-14T06:31:15.326Z,1010.34
2018-04-14T06:31:52.154Z,1010.32
2018-04-14T06:32:27.527Z,1010.36
2018-04-14T06:33:03.195Z,1010.36
2018-04-14T06:33:38.790Z,1010.36
2018-04-14T06:34:13.892Z,1010.37
2018-04-14T06:34:49.429Z,1010.37
2018-04-14T06:35:24.864Z,1010.32
2018-04-14T06:36:00.143Z,1010.35
2018-04-14T06:36:35.565Z,1010.36
2018-04-14T06:37:11.040Z,1010.36
2018-04-14T06:37:47.297Z,1010.42
2018-04-14T06:38:22.624Z,1010.37
2018-04-14T06:38:58.213Z,1010.35
2018-04-14T06:39:33.542Z,1010.37
2018-04-14T06:40:09.147Z,1010.36
2018-04-14T06:40:47.866Z,1010.38
2018-04-14T06:41:26.840Z,1010.38
2018-04-14T06:42:02.369Z,1010.36
2018-04-14T06:42:38.137Z,1010.39
2018-04-14T06:43:16.775Z,1010.39
2018-04-14T06:43:54.713Z,1010.41
2018-04-14T06:44:30.425Z,1010.46
2018-04-14T06:45:05.908Z,1010.39
2018-04-14T06:45:41.844Z,1010.42
2018-04-14T06:46:17.273Z,1010.43
2018-04-14T06:46:54.288Z,1010.40
2018-04-14T06:47:30.136Z,1010.37
2018-04-14T06:48:05.482Z,1010.38
2018-04-14T06:48:41.230Z,1010.36
2018-04-14T06:49:16.785Z,1010.37
2018-04-14T06:49:52.421Z,1010.39
2018-04-14T06:50:27.847Z,1010.42
2018-04-14T06:51:03.009Z,1010.41
2018-04-14T06:51:38.783Z,1010.45
2018-04-14T06:52:14.313Z,1010.49
2018-04-14T06:52:49.950Z,1010.43
2018-04-14T06:53:25.372Z,1010.48
2018-04-14T06:54:01.257Z,1010.48
2018-04-14T06:54:36.838Z,1010.52
2018-04-14T06:55:12.289Z,1010.53
2018-04-14T06:55:47.804Z,1010.51
2018-04-14T06:56:23.166Z,1010.51
2018-04-14T06:56:58.754Z,1010.53
2018-04-14T06:57:34.209Z,1010.57
2018-04-14T06:58:09.909Z,1010.58
2018-04-14T06:58:48.721Z,1010.60
2018-04-14T06:59:24.077Z,1010.66
2018-04-14T06:59:59.341Z,1010.66
2018-04-14T07:00:34.651Z,1010.69
2018-04-14T07:01:10.061Z,1010.68
2018-04-14T07:01:45.225Z,1010.66
2018-04-14T07:02:20.962Z,1010.69
2018-04-14T07:02:56.490Z,1010.73
2018-04-14T07:03:31.904Z,1010.76
2018-04-14T07:04:07.257Z,1010.78
2018-04-14T07:04:42.623Z,1010.83
2018-04-14T07:05:18.087Z,1010.79
2018-04-14T07:05:53.706Z,1010.78
2018-04-14T07:06:29.281Z,1010.83
2018-04-14T07:07:04.985Z,1010.79
2018-04-14T07:07:40.341Z,1010.79
2018-04-14T07:08:15.701Z,1010.79
2018-04-14T07:08:51.090Z,1010.75
2018-04-14T07:09:26.398Z,1010.78
2018-04-14T07:10:01.797Z,1010.77
2018-04-14T07:10:37.358Z,1010.74
2018-04-14T07:11:12.839Z,1010.72
2018-04-14T07:11:50.973Z,1010.78